createdAt,value
2018-03-17T00:00:09.822Z,996.25
2018-03-17T00:01:09.803Z,996.29
2018-03-17T00:02:09.783Z,996.27
2018-03-17T00:03:09.701Z,996.28
2018-03-17T00:04:10.596Z,996.31
2018-03-17T00:05:10.592Z,996.28
2018-03-17T00:06:09.589Z,996.31
2018-03-17T00:07:09.550Z,996.30
2018-03-17T00:08:09.509Z,996.28
2018-03-17T00:09:09.455Z,996.26
2018-03-17T00:10:09.418Z,996.24
2018-03-17T00:11:09.383Z,996.23
2018-03-17T00:12:09.334Z,996.24
2018-03-17T00:13:09.293Z,996.15
2018-03-17T00:14:09.272Z,996.23
2018-03-17T00:15:09.257Z,996.26
2018-03-17T00:16:09.193Z,996.24
2018-03-17T00:17:09.149Z,996.25
2018-03-17T00:18:09.100Z,996.24
2018-03-17T00:19:09.058Z,996.24
2018-03-17T00:20:09.014Z,996.22
2018-03-17T00:21:08.968Z,996.24
2018-03-17T00:22:08.994Z,996.26
2018-03-17T00:23:08.910Z,996.27
2018-03-17T00:24:08.843Z,996.22
2018-03-17T00:25:08.805Z,996.23
2018-03-17T00:26:09.004Z,996.17
2018-03-17T00:27:08.736Z,996.19
2018-03-17T00:28:08.696Z,996.16
2018-03-17T00:29:08.641Z,996.15
2018-03-17T00:30:08.605Z,996.05
2018-03-17T00:31:08.559Z,996.13
2018-03-17T00:32:08.554Z,996.14
2018-03-17T00:33:08.480Z,996.14
2018-03-17T00:34:08.447Z,996.15
2018-03-17T00:35:08.421Z,996.13
2018-03-17T00:36:08.367Z,996.14
2018-03-17T00:37:08.314Z,996.16
2018-03-17T00:38:08.294Z,996.21
2018-03-17T00:39:08.283Z,996.06
2018-03-17T00:40:08.196Z,996.18
2018-03-17T00:41:08.149Z,996.04
2018-03-17T00:42:08.111Z,996.16
2018-03-17T00:43:08.086Z,996.17
2018-03-17T00:44:08.035Z,996.19
2018-03-17T00:45:07.988Z,996.13
2018-03-17T00:46:07.943Z,996.08
2018-03-17T00:47:07.904Z,996.12
2018-03-17T00:48:07.882Z,996.15
2018-03-17T00:49:07.825Z,996.12
2018-03-17T00:50:07.792Z,996.10
2018-03-17T00:51:07.762Z,996.01
2018-03-17T00:52:07.748Z,996.19
2018-03-17T00:53:07.662Z,996.19
2018-03-17T00:54:07.630Z,996.18
2018-03-17T00:55:07.596Z,996.25
2018-03-17T00:56:07.549Z,996.22
2018-03-17T00:57:07.530Z,996.29
2018-03-17T00:58:07.456Z,996.31
2018-03-17T00:59:07.419Z,996.27
2018-03-17T01:00:07.375Z,996.28
2018-03-17T01:01:07.391Z,996.26
2018-03-17T01:02:07.293Z,996.20
2018-03-17T01:03:07.272Z,996.22
2018-03-17T01:04:07.225Z,996.15
2018-03-17T01:05:07.172Z,996.21
2018-03-17T01:06:07.126Z,996.13
2018-03-17T01:07:07.117Z,996.17
2018-03-17T01:08:07.049Z,996.13
2018-03-17T01:09:07.009Z,996.18
2018-03-17T01:10:06.966Z,996.16
2018-03-17T01:11:06.922Z,996.13
2018-03-17T01:12:06.922Z,996.12
2018-03-17T01:13:06.858Z,996.13
2018-03-17T01:14:06.823Z,996.12
2018-03-17T01:15:06.772Z,996.11
2018-03-17T01:16:06.716Z,996.10
2018-03-17T01:17:06.689Z,996.19
2018-03-17T01:18:06.632Z,996.09
2018-03-17T01:19:06.592Z,996.17
2018-03-17T01:20:06.555Z,996.16
2018-03-17T01:21:06.524Z,996.17
2018-03-17T01:22:06.471Z,996.17
2018-03-17T01:23:06.429Z,996.19
2018-03-17T01:24:06.453Z,996.11
2018-03-17T01:25:06.381Z,996.17
2018-03-17T01:26:06.308Z,996.19
2018-03-17T01:27:06.279Z,996.25
2018-03-17T01:28:06.227Z,996.19
2018-03-17T01:29:06.199Z,996.19
2018-03-17T01:30:06.173Z,996.27
2018-03-17T01:31:06.112Z,996.20
2018-03-17T01:32:06.081Z,996.17
2018-03-17T01:33:06.068Z,996.19
2018-03-17T01:34:06.023Z,996.20
2018-03-17T01:35:05.993Z,996.18
2018-03-17T01:36:05.916Z,996.16
2018-03-17T01:37:05.871Z,996.20
2018-03-17T01:38:05.851Z,996.06
2018-03-17T01:39:05.796Z,996.16
2018-03-17T01:40:05.759Z,996.07
2018-03-17T01:41:05.813Z,996.15
2018-03-17T01:42:05.665Z,996.09
2018-03-17T01:43:05.694Z,996.12
2018-03-17T01:44:05.616Z,996.06
2018-03-17T01:45:05.532Z,995.92
2018-03-17T01:46:05.492Z,996.05
2018-03-17T01:47:05.448Z,995.98
2018-03-17T01:48:05.410Z,996.07
2018-03-17T01:49:05.400Z,995.97
2018-03-17T01:50:05.344Z,996.02
2018-03-17T01:51:05.290Z,995.96
2018-03-17T01:52:05.249Z,995.94
2018-03-17T01:53:05.245Z,995.92
2018-03-17T01:54:05.173Z,996.00
2018-03-17T01:55:05.119Z,995.91
2018-03-17T01:56:05.140Z,995.95
2018-03-17T01:57:05.040Z,995.99
2018-03-17T01:58:05.067Z,995.99
2018-03-17T01:59:04.958Z,995.92
2018-03-17T02:00:05.023Z,995.91
2018-03-17T02:01:04.938Z,995.80
2018-03-17T02:02:04.834Z,995.89
2018-03-17T02:03:04.833Z,995.88
2018-03-17T02:04:04.780Z,995.93
2018-03-17T02:05:04.713Z,995.86
2018-03-17T02:06:04.737Z,995.91
2018-03-17T02:07:04.630Z,995.90
2018-03-17T02:08:04.596Z,995.98
2018-03-17T02:09:04.554Z,995.95
2018-03-17T02:10:04.510Z,995.92
2018-03-17T02:11:04.519Z,995.89
2018-03-17T02:12:04.451Z,996.00
2018-03-17T02:13:04.434Z,995.87
2018-03-17T02:14:04.365Z,995.81
2018-03-17T02:15:04.339Z,995.87
2018-03-17T02:16:04.256Z,995.91
2018-03-17T02:17:04.219Z,995.89
2018-03-17T02:18:04.210Z,995.90
2018-03-17T02:19:04.199Z,995.96
2018-03-17T02:20:04.114Z,995.90
2018-03-17T02:21:04.056Z,995.94
2018-03-17T02:22:04.043Z,995.81
2018-03-17T02:23:03.971Z,995.88
2018-03-17T02:24:03.933Z,995.94
2018-03-17T02:25:03.914Z,995.87
2018-03-17T02:26:03.879Z,995.90
2018-03-17T02:27:03.840Z,995.91
2018-03-17T02:28:03.763Z,995.90
2018-03-17T02:29:03.749Z,995.94
2018-03-17T02:30:03.700Z,995.98
2018-03-17T02:31:03.642Z,995.90
2018-03-17T02:32:03.674Z,995.93
2018-03-17T02:33:03.564Z,995.95
2018-03-17T02:34:03.527Z,995.93
2018-03-17T02:35:03.476Z,995.84
2018-03-17T02:36:03.444Z,995.93
2018-03-17T02:37:03.431Z,995.87
2018-03-17T02:38:03.360Z,995.73
2018-03-17T02:39:03.371Z,995.89
2018-03-17T02:40:03.287Z,995.84
2018-03-17T02:41:03.241Z,995.89
2018-03-17T02:42:03.205Z,995.83
2018-03-17T02:43:03.151Z,995.83
2018-03-17T02:44:03.157Z,995.85
2018-03-17T02:45:03.078Z,995.86
2018-03-17T02:46:03.069Z,995.81
2018-03-17T02:47:02.994Z,995.88
2018-03-17T02:48:02.942Z,995.82
2018-03-17T02:49:02.908Z,995.83
2018-03-17T02:50:02.892Z,995.86
2018-03-17T02:51:02.856Z,995.88
2018-03-17T02:52:02.782Z,995.81
2018-03-17T02:53:02.767Z,995.81
2018-03-17T02:54:02.701Z,995.85
2018-03-17T02:55:02.679Z,995.84
2018-03-17T02:56:02.652Z,995.80
2018-03-17T02:57:02.574Z,995.77
2018-03-17T02:58:02.534Z,995.73
2018-03-17T02:59:02.501Z,995.78
2018-03-17T03:00:02.445Z,995.76
2018-03-17T03:01:02.453Z,995.79
2018-03-17T03:02:02.375Z,995.79
2018-03-17T03:03:02.368Z,995.82
2018-03-17T03:04:02.297Z,995.66
2018-03-17T03:05:02.237Z,995.87
2018-03-17T03:06:02.207Z,995.80
2018-03-17T03:07:02.162Z,995.80
2018-03-17T03:08:02.115Z,995.70
2018-03-17T03:09:02.105Z,995.81
2018-03-17T03:10:02.081Z,995.85
2018-03-17T03:11:02.006Z,995.86
2018-03-17T03:12:01.955Z,995.84
2018-03-17T03:13:02.017Z,995.90
2018-03-17T03:14:01.883Z,995.82
2018-03-17T03:15:01.822Z,995.78
2018-03-17T03:16:01.811Z,995.80
2018-03-17T03:17:01.758Z,995.81
2018-03-17T03:18:01.706Z,995.78
2018-03-17T03:19:01.655Z,995.79
2018-03-17T03:20:01.617Z,995.84
2018-03-17T03:21:01.603Z,995.92
2018-03-17T03:22:01.548Z,995.90
2018-03-17T03:23:01.498Z,995.88
2018-03-17T03:24:01.485Z,995.84
2018-03-17T03:25:01.413Z,995.86
2018-03-17T03:26:01.370Z,995.80
2018-03-17T03:27:01.364Z,995.77
2018-03-17T03:28:01.311Z,995.81
2018-03-17T03:29:01.306Z,995.90
2018-03-17T03:30:01.228Z,995.81
2018-03-17T03:31:01.165Z,995.84
2018-03-17T03:32:01.152Z,995.82
2018-03-17T03:33:01.093Z,995.80
2018-03-17T03:34:01.034Z,995.77
2018-03-17T03:35:01.025Z,995.76
2018-03-17T03:36:00.969Z,995.79
2018-03-17T03:37:00.938Z,995.84
2018-03-17T03:38:00.889Z,995.75
2018-03-17T03:39:00.833Z,995.83
2018-03-17T03:40:00.850Z,995.82
2018-03-17T03:41:00.759Z,995.83
2018-03-17T03:42:00.704Z,995.83
2018-03-17T03:43:00.673Z,995.80
2018-03-17T03:44:00.627Z,995.75
2018-03-17T03:45:00.665Z,995.67
2018-03-17T03:46:00.540Z,995.73
2018-03-17T03:47:00.526Z,995.79
2018-03-17T03:48:00.461Z,995.76
2018-03-17T03:49:00.475Z,995.67
2018-03-17T03:50:00.372Z,995.72
2018-03-17T03:51:00.338Z,995.70
2018-03-17T03:52:00.300Z,995.77
2018-03-17T03:53:00.292Z,995.70
2018-03-17T03:54:00.246Z,995.74
2018-03-17T03:55:00.177Z,995.74
2018-03-17T03:56:00.129Z,995.76
2018-03-17T03:57:02.074Z,995.72
2018-03-17T03:58:00.057Z,995.74
2018-03-17T03:59:00.576Z,995.77
2018-03-17T03:59:59.966Z,995.70
2018-03-17T04:00:59.964Z,995.85
2018-03-17T04:01:59.937Z,995.86
2018-03-17T04:02:59.841Z,995.82
2018-03-17T04:03:59.840Z,995.83
2018-03-17T04:04:59.755Z,995.73
2018-03-17T04:05:59.709Z,995.77
2018-03-17T04:06:59.707Z,995.80
2018-03-17T04:07:59.626Z,995.76
2018-03-17T04:08:59.588Z,995.78
2018-03-17T04:09:59.585Z,995.72
2018-03-17T04:10:59.509Z,995.81
2018-03-17T04:11:59.466Z,995.79
2018-03-17T04:12:59.438Z,995.79
2018-03-17T04:13:59.393Z,995.75
2018-03-17T04:14:59.346Z,995.77
2018-03-17T04:15:59.320Z,995.79
2018-03-17T04:16:59.275Z,995.78
2018-03-17T04:17:59.213Z,995.73
2018-03-17T04:18:59.174Z,995.76
2018-03-17T04:19:59.214Z,995.75
2018-03-17T04:20:59.109Z,995.74
2018-03-17T04:21:59.076Z,995.76
2018-03-17T04:22:59.070Z,995.79
2018-03-17T04:23:58.972Z,995.78
2018-03-17T04:24:58.946Z,995.76
2018-03-17T04:25:58.906Z,995.82
2018-03-17T04:26:58.839Z,995.73
2018-03-17T04:27:58.879Z,995.81
2018-03-17T04:28:58.813Z,995.84
2018-03-17T04:29:58.719Z,995.81
2018-03-17T04:30:58.676Z,995.74
2018-03-17T04:31:58.656Z,995.81
2018-03-17T04:32:58.685Z,995.83
2018-03-17T04:33:58.567Z,995.85
2018-03-17T04:34:58.508Z,995.84
2018-03-17T04:35:58.532Z,995.80
2018-03-17T04:36:58.437Z,995.79
2018-03-17T04:37:58.383Z,995.76
2018-03-17T04:38:58.407Z,995.73
2018-03-17T04:39:58.365Z,995.75
2018-03-17T04:40:58.272Z,995.75
2018-03-17T04:41:58.236Z,995.75
2018-03-17T04:42:58.172Z,995.71
2018-03-17T04:43:58.135Z,995.73
2018-03-17T04:44:58.088Z,995.64
2018-03-17T04:45:58.064Z,995.65
2018-03-17T04:46:58.041Z,995.60
2018-03-17T04:47:57.989Z,995.48
2018-03-17T04:48:57.955Z,995.60
2018-03-17T04:49:57.922Z,995.59
2018-03-17T04:50:57.850Z,995.53
2018-03-17T04:51:57.814Z,995.56
2018-03-17T04:52:57.779Z,995.54
2018-03-17T04:53:57.758Z,995.54
2018-03-17T04:54:57.669Z,995.55
2018-03-17T04:55:57.650Z,995.54
2018-03-17T04:56:57.603Z,995.55
2018-03-17T04:57:57.558Z,995.57
2018-03-17T04:58:57.518Z,995.56
2018-03-17T04:59:57.489Z,995.51
2018-03-17T05:00:57.429Z,995.52
2018-03-17T05:01:57.384Z,995.54
2018-03-17T05:02:57.393Z,995.48
2018-03-17T05:03:57.379Z,995.48
2018-03-17T05:04:57.285Z,995.45
2018-03-17T05:05:57.222Z,995.43
2018-03-17T05:06:57.170Z,995.43
2018-03-17T05:07:57.212Z,995.49
2018-03-17T05:08:57.109Z,995.46
2018-03-17T05:09:57.054Z,995.50
2018-03-17T05:10:57.036Z,995.48
2018-03-17T05:11:56.982Z,995.38
2018-03-17T05:12:56.963Z,995.53
2018-03-17T05:13:56.895Z,995.46
2018-03-17T05:14:56.839Z,995.41
2018-03-17T05:15:56.827Z,995.43
2018-03-17T05:16:56.772Z,995.47
2018-03-17T05:17:56.715Z,995.49
2018-03-17T05:18:56.681Z,995.48
2018-03-17T05:19:56.705Z,995.44
2018-03-17T05:20:56.646Z,995.46
2018-03-17T05:21:56.566Z,995.46
2018-03-17T05:22:56.529Z,995.49
2018-03-17T05:23:56.465Z,995.52
2018-03-17T05:24:56.424Z,995.50
2018-03-17T05:25:56.381Z,995.45
2018-03-17T05:26:56.339Z,995.49
2018-03-17T05:27:56.296Z,995.48
2018-03-17T05:28:56.256Z,995.51
2018-03-17T05:29:56.213Z,995.51
2018-03-17T05:30:56.171Z,995.48
2018-03-17T05:31:56.132Z,995.54
2018-03-17T05:32:56.087Z,995.49
2018-03-17T05:33:56.046Z,995.36
2018-03-17T05:34:56.005Z,995.47
2018-03-17T05:35:55.962Z,995.49
2018-03-17T05:36:55.923Z,995.44
2018-03-17T05:37:55.886Z,995.52
2018-03-17T05:38:55.837Z,995.50
2018-03-17T05:39:55.795Z,995.56
2018-03-17T05:40:55.753Z,995.51
2018-03-17T05:41:55.708Z,995.48
2018-03-17T05:42:55.668Z,995.38
2018-03-17T05:43:55.625Z,995.37
2018-03-17T05:44:55.588Z,995.45
2018-03-17T05:45:55.542Z,995.45
2018-03-17T05:46:55.503Z,995.45
2018-03-17T05:47:55.461Z,995.52
2018-03-17T05:48:55.427Z,995.47
2018-03-17T05:49:55.376Z,995.42
2018-03-17T05:50:55.335Z,995.54
2018-03-17T05:51:55.293Z,995.48
2018-03-17T05:52:55.250Z,995.45
2018-03-17T05:53:55.208Z,995.39
2018-03-17T05:54:55.167Z,995.49
2018-03-17T05:55:55.127Z,995.40
2018-03-17T05:56:55.084Z,995.49
2018-03-17T05:57:55.043Z,995.45
2018-03-17T05:58:55.500Z,995.43
2018-03-17T05:59:54.959Z,995.47
2018-03-17T06:00:54.915Z,995.53
2018-03-17T06:01:54.873Z,995.43
2018-03-17T06:02:54.831Z,995.40
2018-03-17T06:03:54.792Z,995.52
2018-03-17T06:04:54.749Z,995.46
2018-03-17T06:05:54.707Z,995.50
2018-03-17T06:06:54.662Z,995.52
2018-03-17T06:07:54.624Z,995.58
2018-03-17T06:08:54.579Z,995.51
2018-03-17T06:09:54.540Z,995.48
2018-03-17T06:10:55.142Z,995.52
2018-03-17T06:11:54.457Z,995.51
2018-03-17T06:12:54.417Z,995.48
2018-03-17T06:13:54.370Z,995.47
2018-03-17T06:14:54.332Z,995.45
2018-03-17T06:15:54.290Z,995.50
2018-03-17T06:16:54.250Z,995.48
2018-03-17T06:17:54.203Z,995.53
2018-03-17T06:18:54.159Z,995.56
2018-03-17T06:19:54.118Z,995.60
2018-03-17T06:20:54.081Z,995.57
2018-03-17T06:21:54.036Z,995.53
2018-03-17T06:22:53.994Z,995.54
2018-03-17T06:23:53.952Z,995.50
2018-03-17T06:24:53.916Z,995.48
2018-03-17T06:25:53.869Z,995.49
2018-03-17T06:26:53.827Z,995.47
2018-03-17T06:27:53.784Z,995.51
2018-03-17T06:28:53.749Z,995.46
2018-03-17T06:29:53.703Z,995.47
2018-03-17T06:30:53.663Z,995.45
2018-03-17T06:31:53.617Z,995.43
2018-03-17T06:32:53.578Z,995.43
2018-03-17T06:33:53.540Z,995.45
2018-03-17T06:34:53.494Z,995.40
2018-03-17T06:35:53.453Z,995.45
2018-03-17T06:36:53.410Z,995.44
2018-03-17T06:37:53.368Z,995.48
2018-03-17T06:38:53.323Z,995.42
2018-03-17T06:39:53.285Z,995.49
2018-03-17T06:40:53.244Z,995.42
2018-03-17T06:41:53.201Z,995.49
2018-03-17T06:42:53.157Z,995.49
2018-03-17T06:43:53.118Z,995.45
2018-03-17T06:44:53.074Z,995.45
2018-03-17T06:45:53.033Z,995.50
2018-03-17T06:46:52.990Z,995.43
2018-03-17T06:47:52.949Z,995.47
2018-03-17T06:48:52.906Z,995.46
2018-03-17T06:49:52.892Z,995.50
2018-03-17T06:50:52.824Z,995.46
2018-03-17T06:51:52.780Z,995.48
2018-03-17T06:52:52.740Z,995.45
2018-03-17T06:53:52.698Z,995.49
2018-03-17T06:54:52.659Z,995.44
2018-03-17T06:55:52.613Z,995.51
2018-03-17T06:56:52.572Z,995.49
2018-03-17T06:57:52.529Z,995.50
2018-03-17T06:58:52.488Z,995.56
2018-03-17T06:59:52.446Z,995.49
2018-03-17T07:00:52.404Z,995.41
2018-03-17T07:01:52.363Z,995.48
2018-03-17T07:02:52.343Z,995.52
2018-03-17T07:03:52.278Z,995.50
2018-03-17T07:04:52.242Z,995.53
2018-03-17T07:05:52.214Z,995.48
2018-03-17T07:06:52.159Z,995.53
2018-03-17T07:07:52.112Z,995.49
2018-03-17T07:08:52.069Z,995.53
2018-03-17T07:09:52.028Z,995.49
2018-03-17T07:10:51.986Z,995.41
2018-03-17T07:11:51.944Z,995.46
2018-03-17T07:12:51.903Z,995.46
2018-03-17T07:13:51.859Z,995.49
2018-03-17T07:14:51.818Z,995.48
2018-03-17T07:15:51.776Z,995.58
2018-03-17T07:16:51.735Z,995.53
2018-03-17T07:17:51.693Z,995.53
2018-03-17T07:18:51.660Z,995.55
2018-03-17T07:19:51.610Z,995.55
2018-03-17T07:20:51.569Z,995.62
2018-03-17T07:21:51.525Z,995.56
2018-03-17T07:22:51.484Z,995.53
2018-03-17T07:23:51.441Z,995.59
2018-03-17T07:24:51.403Z,995.63
2018-03-17T07:25:51.358Z,995.54
2018-03-17T07:26:51.317Z,995.59
2018-03-17T07:27:51.275Z,995.55
2018-03-17T07:28:51.234Z,995.56
2018-03-17T07:29:51.192Z,995.61
2018-03-17T07:30:51.147Z,995.60
2018-03-17T07:31:51.107Z,995.64
2018-03-17T07:32:51.072Z,995.63
2018-03-17T07:33:51.023Z,995.59
2018-03-17T07:34:50.979Z,995.69
2018-03-17T07:35:50.937Z,995.57
2018-03-17T07:36:50.898Z,995.66
2018-03-17T07:37:50.857Z,995.60
2018-03-17T07:38:50.814Z,995.64
2018-03-17T07:39:50.769Z,995.66
2018-03-17T07:40:50.728Z,995.70
2018-03-17T07:41:50.686Z,995.75
2018-03-17T07:42:50.642Z,995.73
2018-03-17T07:43:50.604Z,995.75
2018-03-17T07:44:50.565Z,995.75
2018-03-17T07:45:50.519Z,995.77
2018-03-17T07:46:50.529Z,995.72
2018-03-17T07:47:50.436Z,995.76
2018-03-17T07:48:51.049Z,995.72
2018-03-17T07:49:50.355Z,995.72
2018-03-17T07:50:50.309Z,995.70
2018-03-17T07:51:50.267Z,995.67
2018-03-17T07:52:50.226Z,995.69
2018-03-17T07:53:50.184Z,995.74
2018-03-17T07:54:50.159Z,995.75
2018-03-17T07:55:50.098Z,995.73
2018-03-17T07:56:50.056Z,995.79
2018-03-17T07:57:50.014Z,995.76
2018-03-17T07:58:49.973Z,995.75
2018-03-17T07:59:49.931Z,995.83
2018-03-17T08:00:49.889Z,995.81
2018-03-17T08:01:49.846Z,995.86
2018-03-17T08:02:49.802Z,995.88
2018-03-17T08:03:49.762Z,995.87
2018-03-17T08:04:49.719Z,995.84
2018-03-17T08:05:49.681Z,995.77
2018-03-17T08:06:49.638Z,995.76
2018-03-17T08:07:49.593Z,995.73
2018-03-17T08:08:49.552Z,995.71
2018-03-17T08:09:49.509Z,995.80
2018-03-17T08:10:49.465Z,995.77
2018-03-17T08:11:49.424Z,995.66
2018-03-17T08:12:49.389Z,995.81
2018-03-17T08:13:49.342Z,995.78
2018-03-17T08:14:49.299Z,995.68
2018-03-17T08:15:49.258Z,995.81
2018-03-17T08:16:49.216Z,995.71
2018-03-17T08:17:49.189Z,995.81
2018-03-17T08:18:49.156Z,995.78
2018-03-17T08:19:49.089Z,995.74
2018-03-17T08:20:49.047Z,995.84
2018-03-17T08:21:49.008Z,995.70
2018-03-17T08:22:48.960Z,995.76
2018-03-17T08:23:48.919Z,995.69
2018-03-17T08:24:48.878Z,995.72
2018-03-17T08:25:48.834Z,995.79
2018-03-17T08:26:48.793Z,995.70
2018-03-17T08:27:48.750Z,995.65
2018-03-17T08:28:48.709Z,995.76
2018-03-17T08:29:48.672Z,995.76
2018-03-17T08:30:48.625Z,995.77
2018-03-17T08:31:48.582Z,995.71
2018-03-17T08:32:48.546Z,995.73
2018-03-17T08:33:48.497Z,995.70
2018-03-17T08:34:48.454Z,995.76
2018-03-17T08:35:48.413Z,995.71
2018-03-17T08:36:48.374Z,995.75
2018-03-17T08:37:48.326Z,995.79
2018-03-17T08:38:48.285Z,995.72
2018-03-17T08:39:48.245Z,995.74
2018-03-17T08:40:48.201Z,995.71
2018-03-17T08:41:48.158Z,995.75
2018-03-17T08:42:48.118Z,995.75
2018-03-17T08:43:48.078Z,995.76
2018-03-17T08:44:48.034Z,995.83
2018-03-17T08:45:47.989Z,995.72
2018-03-17T08:46:47.946Z,995.88
2018-03-17T08:47:47.906Z,995.75
2018-03-17T08:48:47.907Z,995.70
2018-03-17T08:49:47.822Z,995.74
2018-03-17T08:50:47.778Z,995.75
2018-03-17T08:51:47.738Z,995.73
2018-03-17T08:52:47.703Z,995.78
2018-03-17T08:53:47.652Z,995.67
2018-03-17T08:54:47.613Z,995.72
2018-03-17T08:55:47.597Z,995.74
2018-03-17T08:56:47.528Z,995.77
2018-03-17T08:57:47.487Z,995.71
2018-03-17T08:58:47.490Z,995.77
2018-03-17T08:59:47.402Z,995.79
2018-03-17T09:00:47.358Z,995.71
2018-03-17T09:01:47.321Z,995.69
2018-03-17T09:02:47.280Z,995.71
2018-03-17T09:03:47.237Z,995.73
2018-03-17T09:04:47.195Z,995.74
2018-03-17T09:05:47.149Z,995.61
2018-03-17T09:06:47.110Z,995.57
2018-03-17T09:07:47.065Z,995.58
2018-03-17T09:08:47.023Z,995.67
2018-03-17T09:09:46.980Z,995.57
2018-03-17T09:10:46.955Z,995.62
2018-03-17T09:11:46.900Z,995.60
2018-03-17T09:12:46.862Z,995.56
2018-03-17T09:13:46.813Z,995.57
2018-03-17T09:14:46.770Z,995.64
2018-03-17T09:15:46.727Z,995.71
2018-03-17T09:16:46.691Z,995.50
2018-03-17T09:17:46.644Z,995.68
2018-03-17T09:18:46.603Z,995.64
2018-03-17T09:19:46.561Z,995.63
2018-03-17T09:20:46.521Z,995.66
2018-03-17T09:21:46.478Z,995.65
2018-03-17T09:22:46.435Z,995.66
2018-03-17T09:23:46.395Z,995.67
2018-03-17T09:24:46.354Z,995.67
2018-03-17T09:25:46.311Z,995.65
2018-03-17T09:26:46.266Z,995.66
2018-03-17T09:27:46.228Z,995.53
2018-03-17T09:28:46.184Z,995.63
2018-03-17T09:29:46.149Z,995.74
2018-03-17T09:30:46.100Z,995.67
2018-03-17T09:31:46.058Z,995.65
2018-03-17T09:32:46.019Z,995.65
2018-03-17T09:33:45.979Z,995.70
2018-03-17T09:34:45.987Z,995.59
2018-03-17T09:35:45.901Z,995.73
2018-03-17T09:36:45.851Z,995.67
2018-03-17T09:37:45.810Z,995.69
2018-03-17T09:38:45.767Z,995.65
2018-03-17T09:39:45.725Z,995.59
2018-03-17T09:40:45.819Z,995.62
2018-03-17T09:41:45.638Z,995.70
2018-03-17T09:42:45.594Z,995.67
2018-03-17T09:43:45.554Z,995.62
2018-03-17T09:44:45.514Z,995.66
2018-03-17T09:45:45.472Z,995.64
2018-03-17T09:46:45.429Z,995.69
2018-03-17T09:47:45.395Z,995.71
2018-03-17T09:48:45.346Z,995.72
2018-03-17T09:49:45.311Z,995.70
2018-03-17T09:50:45.262Z,995.66
2018-03-17T09:51:45.221Z,995.70
2018-03-17T09:52:45.178Z,995.67
2018-03-17T09:53:45.134Z,995.67
2018-03-17T09:54:45.094Z,995.67
2018-03-17T09:55:45.052Z,995.69
2018-03-17T09:56:45.012Z,995.73
2018-03-17T09:57:44.967Z,995.68
2018-03-17T09:58:44.926Z,995.70
2018-03-17T09:59:44.886Z,995.73
2018-03-17T10:00:44.872Z,995.71
2018-03-17T10:01:44.799Z,995.63
2018-03-17T10:02:44.759Z,995.70
2018-03-17T10:03:44.717Z,995.66
2018-03-17T10:04:44.697Z,995.64
2018-03-17T10:05:44.633Z,995.61
2018-03-17T10:06:44.593Z,995.62
2018-03-17T10:07:44.547Z,995.65
2018-03-17T10:08:44.506Z,995.65
2018-03-17T10:09:44.461Z,995.74
2018-03-17T10:10:44.424Z,995.68
2018-03-17T10:11:44.401Z,995.67
2018-03-17T10:12:44.340Z,995.66
2018-03-17T10:13:44.295Z,995.69
2018-03-17T10:14:44.254Z,995.75
2018-03-17T10:15:44.224Z,995.70
2018-03-17T10:16:44.173Z,995.70
2018-03-17T10:17:44.130Z,995.76
2018-03-17T10:18:46.608Z,995.70
2018-03-17T10:19:44.044Z,995.73
2018-03-17T10:20:44.003Z,995.69
2018-03-17T10:21:43.958Z,995.71
2018-03-17T10:22:43.921Z,995.63
2018-03-17T10:23:43.881Z,995.67
2018-03-17T10:24:43.839Z,995.77
2018-03-17T10:25:43.796Z,995.69
2018-03-17T10:26:43.753Z,995.63
2018-03-17T10:27:43.711Z,995.71
2018-03-17T10:28:43.669Z,995.74
2018-03-17T10:29:43.650Z,995.62
2018-03-17T10:30:43.582Z,995.67
2018-03-17T10:31:43.543Z,995.65
2018-03-17T10:32:43.500Z,995.65
2018-03-17T10:33:43.459Z,995.59
2018-03-17T10:34:43.443Z,995.52
2018-03-17T10:35:43.383Z,995.59
2018-03-17T10:36:43.338Z,995.59
2018-03-17T10:37:43.290Z,995.52
2018-03-17T10:38:43.251Z,995.66
2018-03-17T10:39:43.230Z,995.65
2018-03-17T10:40:43.166Z,995.63
2018-03-17T10:41:43.125Z,995.57
2018-03-17T10:42:43.085Z,995.55
2018-03-17T10:43:43.047Z,995.64
2018-03-17T10:44:43.000Z,995.54
2018-03-17T10:45:42.958Z,995.50
2018-03-17T10:46:42.915Z,995.57
2018-03-17T10:47:42.874Z,995.58
2018-03-17T10:48:42.833Z,995.55
2018-03-17T10:49:42.791Z,995.66
2018-03-17T10:50:42.748Z,995.59
2018-03-17T10:51:42.707Z,995.68
2018-03-17T10:52:42.665Z,995.62
2018-03-17T10:53:42.629Z,995.68
2018-03-17T10:54:42.584Z,995.58
2018-03-17T10:55:42.542Z,995.62
2018-03-17T10:56:42.499Z,995.60
2018-03-17T10:57:42.456Z,995.57
2018-03-17T10:58:42.414Z,995.63
2018-03-17T10:59:42.370Z,995.58
2018-03-17T11:00:42.328Z,995.61
2018-03-17T11:01:42.287Z,995.65
2018-03-17T11:02:42.249Z,995.66
2018-03-17T11:03:42.205Z,995.61
2018-03-17T11:04:42.163Z,995.63
2018-03-17T11:05:42.125Z,995.51
2018-03-17T11:06:42.083Z,995.60
2018-03-17T11:07:42.040Z,995.49
2018-03-17T11:08:41.998Z,995.48
2018-03-17T11:09:41.954Z,995.52
2018-03-17T11:10:41.916Z,995.51
2018-03-17T11:11:41.921Z,995.49
2018-03-17T11:12:41.831Z,995.50
2018-03-17T11:13:41.798Z,995.48
2018-03-17T11:14:41.745Z,995.43
2018-03-17T11:15:41.710Z,995.44
2018-03-17T11:16:41.664Z,995.38
2018-03-17T11:17:41.620Z,995.47
2018-03-17T11:18:41.579Z,995.46
2018-03-17T11:19:41.552Z,995.42
2018-03-17T11:20:41.495Z,995.50
2018-03-17T11:21:41.454Z,995.41
2018-03-17T11:22:41.409Z,995.42
2018-03-17T11:23:41.369Z,995.46
2018-03-17T11:24:41.348Z,995.42
2018-03-17T11:25:41.283Z,995.32
2018-03-17T11:26:42.025Z,995.37
2018-03-17T11:27:42.026Z,995.41
2018-03-17T11:28:41.168Z,995.49
2018-03-17T11:29:41.121Z,995.51
2018-03-17T11:30:41.077Z,995.41
2018-03-17T11:31:41.037Z,995.53
2018-03-17T11:32:40.996Z,995.45
2018-03-17T11:33:40.952Z,995.55
2018-03-17T11:34:40.908Z,995.30
2018-03-17T11:35:40.867Z,995.45
2018-03-17T11:36:40.824Z,995.37
2018-03-17T11:37:40.789Z,995.40
2018-03-17T11:38:40.744Z,995.44
2018-03-17T11:39:40.698Z,995.49
2018-03-17T11:40:40.663Z,995.47
2018-03-17T11:41:40.615Z,995.50
2018-03-17T11:42:40.580Z,995.52
2018-03-17T11:43:40.539Z,995.51
2018-03-17T11:44:40.496Z,995.58
2018-03-17T11:45:40.449Z,995.56
2018-03-17T11:46:40.411Z,995.55
2018-03-17T11:47:40.387Z,995.49
2018-03-17T11:48:40.328Z,995.50
2018-03-17T11:49:40.284Z,995.57
2018-03-17T11:50:40.240Z,995.49
2018-03-17T11:51:40.200Z,995.54
2018-03-17T11:52:40.158Z,995.52
2018-03-17T11:53:40.512Z,995.56
2018-03-17T11:54:40.076Z,995.57
2018-03-17T11:55:40.030Z,995.51
2018-03-17T11:56:39.992Z,995.56
2018-03-17T11:57:39.951Z,995.54
2018-03-17T11:58:39.905Z,995.51
2018-03-17T11:59:39.865Z,995.54
2018-03-17T12:00:39.824Z,995.48
2018-03-17T12:01:39.782Z,995.41
2018-03-17T12:02:39.741Z,995.44
2018-03-17T12:03:39.699Z,995.42
2018-03-17T12:04:39.660Z,995.45
2018-03-17T12:05:39.616Z,995.47
2018-03-17T12:06:39.572Z,995.48
2018-03-17T12:07:39.531Z,995.45
2018-03-17T12:08:39.507Z,995.43
2018-03-17T12:09:39.449Z,995.54
2018-03-17T12:10:39.404Z,995.49
2018-03-17T12:11:39.366Z,995.40
2018-03-17T12:12:39.322Z,995.40
2018-03-17T12:13:39.282Z,995.34
2018-03-17T12:14:39.236Z,995.37
2018-03-17T12:15:39.197Z,995.33
2018-03-17T12:16:39.150Z,995.38
2018-03-17T12:17:39.113Z,995.36
2018-03-17T12:18:39.071Z,995.37
2018-03-17T12:19:39.032Z,995.37
2018-03-17T12:20:38.989Z,995.39
2018-03-17T12:21:38.948Z,995.31
2018-03-17T12:22:38.905Z,995.44
2018-03-17T12:23:38.862Z,995.28
2018-03-17T12:24:38.820Z,995.36
2018-03-17T12:25:38.781Z,995.40
2018-03-17T12:26:38.736Z,995.25
2018-03-17T12:27:38.696Z,995.41